Time;durP1;ratioP1;P1;durP2;ratioP2;P2;SDS_P1;SDS_P2;PMS_P1;PMS_P2;Temp;Humidity;BMP_temperature;BMP_pressure;BME280_temperature;BME280_humidity;BME280_pressure;Samples;Min_cycle;Max_cycle;Signal;HPM_P1;HPM_P2
2022/10/09 00:01:55;;;;;;;10.75;5.05;;;10.70;99.90;;;;;;5111664;28;20202;-85
2022/10/09 00:04:22;;;;;;;8.18;4.93;;;10.50;99.90;;;;;;5109715;28;20222;-86
2022/10/09 00:06:49;;;;;;;7.82;4.78;;;10.30;99.90;;;;;;5106688;28;20252;-86
2022/10/09 00:09:18;;;;;;;12.30;5.30;;;10.20;99.90;;;;;;5098008;28;20754;-86
2022/10/09 00:11:45;;;;;;;10.93;5.10;;;10.20;99.90;;;;;;5113891;28;20219;-86
2022/10/09 00:14:16;;;;;;;8.68;5.03;;;10.20;99.90;;;;;;5113451;28;20278;-85
2022/10/09 00:16:43;;;;;;;9.07;5.20;;;10.20;99.90;;;;;;5113399;28;20202;-85
2022/10/09 00:19:10;;;;;;;5.78;4.25;;;10.20;99.90;;;;;;5102003;28;20576;-85
2022/10/09 00:21:37;;;;;;;6.60;4.70;;;10.20;99.90;;;;;;5113840;28;20263;-85
2022/10/09 00:24:05;;;;;;;9.82;4.72;;;10.10;99.90;;;;;;5110488;28;20206;-86
2022/10/09 00:26:42;;;;;;;9.48;5.22;;;10.10;99.90;;;;;;5102173;28;20193;-86
2022/10/09 00:29:09;;;;;;;8.07;4.70;;;10.00;99.90;;;;;;5109781;28;20714;-87
2022/10/09 00:32:16;;;;;;;11.38;5.07;;;10.00;99.90;;;;;;5112635;28;20279;-85
2022/10/09 00:34:46;;;;;;;9.75;4.82;;;10.00;99.90;;;;;;5103611;28;20192;-85
2022/10/09 00:37:13;;;;;;;7.18;4.97;;;9.90;99.90;;;;;;5110500;28;20213;-85
2022/10/09 00:39:46;;;;;;;8.00;5.03;;;9.90;99.90;;;;;;5115095;28;20638;-85
2022/10/09 00:42:18;;;;;;;12.35;5.72;;;9.90;99.90;;;;;;5112157;28;20214;-85
2022/10/09 00:44:56;;;;;;;6.93;4.70;;;9.90;99.90;;;;;;5115315;28;20204;-86
2022/10/09 00:47:29;;;;;;;10.55;5.25;;;9.80;99.90;;;;;;5114035;28;20192;-86
2022/10/09 00:50:02;;;;;;;8.30;4.85;;;9.80;99.90;;;;;;5111776;28;20291;-87
2022/10/09 00:52:29;;;;;;;11.13;5.13;;;9.90;99.90;;;;;;5108196;28;20204;-86
2022/10/09 00:55:00;;;;;;;12.20;5.25;;;9.90;99.90;;;;;;5108683;28;20297;-85
2022/10/09 00:57:47;;;;;;;11.80;5.28;;;9.80;99.90;;;;;;5111050;28;20370;-85
2022/10/09 01:00:15;;;;;;;11.88;5.80;;;9.80;99.90;;;;;;5115321;28;20234;-85
2022/10/09 01:03:16;;;;;;;7.72;5.72;;;9.80;99.90;;;;;;5113267;28;20255;-85
2022/10/09 01:06:02;;;;;;;9.57;5.22;;;9.90;99.90;;;;;;5113941;28;20761;-87
2022/10/09 01:08:35;;;;;;;9.40;4.88;;;9.90;99.90;;;;;;5115430;27;20196;-86
2022/10/09 01:11:07;;;;;;;10.38;5.25;;;10.00;99.90;;;;;;5111816;28;20289;-85
2022/10/09 01:13:57;;;;;;;8.27;4.50;;;10.00;99.90;;;;;;5117233;28;20238;-85
2022/10/09 01:16:28;;;;;;;15.20;5.40;;;10.00;99.90;;;;;;5109977;28;20212;-85
2022/10/09 01:22:54;;;;;;;10.55;4.90;;;9.80;99.90;;;;;;5118153;28;20214;-85
2022/10/09 01:26:16;;;;;;;7.03;4.65;;;9.70;99.90;;;;;;5114843;28;20263;-85
2022/10/09 01:28:49;;;;;;;11.85;5.30;;;9.70;99.90;;;;;;5113980;28;20210;-86
2022/10/09 01:31:18;;;;;;;14.68;5.78;;;9.70;99.90;;;;;;5121720;27;20198;-85
2022/10/09 01:34:17;;;;;;;9.68;5.40;;;9.60;99.90;;;;;;5107765;28;20192;-85
2022/10/09 01:37:10;;;;;;;9.02;5.75;;;9.60;99.90;;;;;;5115327;27;20224;-85
2022/10/09 01:39:43;;;;;;;7.65;5.00;;;9.50;99.90;;;;;;5116378;27;20204;-85
2022/10/09 01:42:13;;;;;;;9.25;5.20;;;9.50;99.90;;;;;;5118033;28;20202;-86
2022/10/09 01:45:07;;;;;;;11.93;5.30;;;9.50;99.90;;;;;;5113228;28;20218;-85
2022/10/09 01:47:33;;;;;;;8.23;4.93;;;9.60;99.90;;;;;;5110986;28;20283;-86
2022/10/09 01:50:08;;;;;;;11.07;5.45;;;9.50;99.90;;;;;;5114990;28;20299;-86
2022/10/09 01:52:55;;;;;;;11.15;5.72;;;9.40;99.90;;;;;;5113653;28;20673;-86
2022/10/09 01:55:48;;;;;;;10.63;5.68;;;9.40;99.90;;;;;;5115607;28;20196;-86
2022/10/09 01:58:20;;;;;;;8.60;5.60;;;9.30;99.90;;;;;;5106710;28;20192;-87
2022/10/09 02:00:52;;;;;;;9.00;5.50;;;9.20;99.90;;;;;;5107479;28;20216;-86
2022/10/09 02:03:20;;;;;;;10.68;5.70;;;9.20;99.90;;;;;;5111158;28;20263;-86
2022/10/09 02:05:49;;;;;;;9.63;5.78;;;9.10;99.90;;;;;;5111416;28;20581;-88
2022/10/09 02:08:19;;;;;;;9.57;6.50;;;9.10;99.90;;;;;;5117661;27;20225;-85
2022/10/09 02:10:50;;;;;;;8.30;5.60;;;9.10;99.90;;;;;;5114182;28;20283;-85
2022/10/09 02:13:23;;;;;;;10.25;5.43;;;9.10;99.90;;;;;;5115019;28;20203;-85
2022/10/09 02:16:16;;;;;;;8.93;5.35;;;9.20;99.90;;;;;;5115974;28;20198;-86
2022/10/09 02:18:45;;;;;;;9.13;5.15;;;9.30;99.90;;;;;;5106353;28;20196;-86
2022/10/09 02:21:16;;;;;;;8.63;5.80;;;9.30;99.90;;;;;;5113273;28;20215;-86
2022/10/09 02:23:49;;;;;;;10.57;5.70;;;9.30;99.90;;;;;;5111357;28;20201;-86
2022/10/09 02:26:58;;;;;;;10.95;5.90;;;9.20;99.90;;;;;;5110815;28;20200;-86
2022/10/09 02:29:25;;;;;;;11.07;5.80;;;9.10;99.90;;;;;;5118468;27;20218;-89
2022/10/09 02:31:55;;;;;;;11.77;5.93;;;9.20;99.90;;;;;;5111488;27;20204;-86
2022/10/09 02:34:22;;;;;;;9.18;5.93;;;9.10;99.90;;;;;;5112686;27;20202;-86
2022/10/09 02:36:49;;;;;;;12.57;6.70;;;9.00;99.90;;;;;;5109898;28;20215;-86
2022/10/09 02:39:16;;;;;;;10.63;6.85;;;9.00;99.90;;;;;;5105252;27;20218;-86
2022/10/09 02:41:46;;;;;;;9.63;6.82;;;9.00;99.90;;;;;;5112213;28;20243;-85
2022/10/09 02:44:22;;;;;;;8.88;6.55;;;9.10;99.90;;;;;;5117466;27;20196;-86
2022/10/09 02:46:49;;;;;;;8.52;6.15;;;9.20;99.90;;;;;;5114420;27;20210;-86
2022/10/09 02:49:24;;;;;;;9.40;6.47;;;9.30;99.90;;;;;;5106521;28;20204;-86
2022/10/09 02:51:51;;;;;;;10.25;6.82;;;9.20;99.90;;;;;;5106727;28;20210;-87
2022/10/09 02:54:18;;;;;;;10.13;6.13;;;9.00;99.90;;;;;;5117827;27;20283;-87
2022/10/09 02:56:46;;;;;;;8.60;6.57;;;8.90;99.90;;;;;;5120148;27;20290;-87
2022/10/09 02:59:17;;;;;;;11.45;6.53;;;8.90;99.90;;;;;;5108674;27;20210;-87
2022/10/09 03:01:46;;;;;;;8.45;6.78;;;9.00;99.90;;;;;;5104537;28;20206;-85
2022/10/09 03:04:16;;;;;;;11.40;6.32;;;8.90;99.90;;;;;;5108046;28;20296;-86
2022/10/09 03:06:45;;;;;;;12.00;6.85;;;8.70;99.90;;;;;;5112165;27;20188;-86
2022/10/09 03:09:12;;;;;;;9.63;6.32;;;8.80;99.90;;;;;;5113046;28;20198;-86
2022/10/09 03:11:39;;;;;;;10.85;7.00;;;8.70;99.90;;;;;;5111472;28;20275;-87
2022/10/09 03:14:06;;;;;;;13.20;6.47;;;8.70;99.90;;;;;;5103911;28;20643;-86
2022/10/09 03:16:32;;;;;;;11.55;6.60;;;8.70;99.90;;;;;;5103399;27;20281;-85
2022/10/09 03:18:59;;;;;;;11.30;6.07;;;8.70;99.90;;;;;;5108010;28;20196;-88
2022/10/09 03:21:27;;;;;;;9.40;6.93;;;8.70;99.90;;;;;;5102444;28;20215;-86
2022/10/09 03:24:00;;;;;;;12.20;6.95;;;8.70;99.90;;;;;;5108857;28;20199;-87
2022/10/09 03:26:28;;;;;;;11.20;7.13;;;8.70;99.90;;;;;;5104754;28;20618;-86
2022/10/09 03:28:55;;;;;;;9.43;6.68;;;8.70;99.90;;;;;;5115479;27;20668;-86
2022/10/09 03:31:25;;;;;;;12.90;6.85;;;8.70;99.90;;;;;;5114470;27;20572;-87
2022/10/09 03:34:16;;;;;;;12.85;6.95;;;8.80;99.90;;;;;;5112493;27;20200;-85
2022/10/09 03:37:10;;;;;;;9.52;6.38;;;8.80;99.90;;;;;;5106621;27;20228;-85
2022/10/09 03:40:12;;;;;;;9.38;6.03;;;8.80;99.90;;;;;;5103007;28;20204;-86
2022/10/09 03:42:38;;;;;;;14.00;8.77;;;8.90;99.90;;;;;;5113277;28;20192;-85
2022/10/09 03:45:28;;;;;;;16.83;10.38;;;9.10;99.90;;;;;;5109602;28;20280;-85
2022/10/09 03:47:59;;;;;;;10.63;6.07;;;9.20;99.90;;;;;;5105448;27;20196;-86
2022/10/09 03:50:29;;;;;;;9.68;6.18;;;9.20;99.90;;;;;;5102377;28;20276;-86
2022/10/09 03:52:55;;;;;;;10.75;5.70;;;9.10;99.90;;;;;;5106061;28;20531;-86
2022/10/09 03:55:30;;;;;;;11.95;6.28;;;8.90;99.90;;;;;;5109165;28;20206;-86
2022/10/09 03:57:57;;;;;;;7.57;5.70;;;8.80;99.90;;;;;;5112682;28;20241;-87
2022/10/09 04:00:24;;;;;;;7.60;5.45;;;8.70;99.90;;;;;;5111840;28;20263;-86
2022/10/09 04:02:51;;;;;;;7.65;5.80;;;8.50;99.90;;;;;;5102302;28;20660;-86
2022/10/09 04:05:23;;;;;;;10.07;5.75;;;8.50;99.90;;;;;;5106967;28;20775;-86
2022/10/09 04:07:53;;;;;;;7.15;5.35;;;8.40;99.90;;;;;;5100318;28;20192;-86
2022/10/09 04:10:19;;;;;;;7.65;5.40;;;8.40;99.90;;;;;;5110225;28;20202;-87
2022/10/09 04:12:48;;;;;;;9.93;6.10;;;8.40;99.90;;;;;;5111194;28;20202;-86
2022/10/09 04:15:15;;;;;;;12.88;5.97;;;8.40;99.90;;;;;;5110429;28;20625;-86
2022/10/09 04:17:42;;;;;;;12.02;5.80;;;8.30;99.90;;;;;;5108997;28;20234;-87
2022/10/09 04:20:09;;;;;;;10.73;6.10;;;8.30;99.90;;;;;;5108824;28;20219;-86
2022/10/09 04:22:36;;;;;;;7.13;5.15;;;8.30;99.90;;;;;;5110647;28;20200;-86
2022/10/09 04:25:03;;;;;;;9.48;5.00;;;8.30;99.90;;;;;;5109693;28;20275;-86
2022/10/09 04:27:30;;;;;;;7.95;5.60;;;8.40;99.90;;;;;;5106386;28;20191;-86
2022/10/09 04:29:58;;;;;;;12.07;5.20;;;8.30;99.90;;;;;;5112613;28;20206;-87
2022/10/09 04:32:40;;;;;;;9.43;5.22;;;8.30;99.90;;;;;;5106889;28;20537;-86
2022/10/09 04:35:52;;;;;;;5.68;4.68;;;8.30;99.90;;;;;;5115815;28;20270;-86
2022/10/09 04:38:24;;;;;;;9.30;5.28;;;8.20;99.90;;;;;;5107639;28;20198;-86
2022/10/09 04:41:10;;;;;;;7.70;4.68;;;8.20;99.90;;;;;;5105832;28;20215;-86
2022/10/09 04:43:37;;;;;;;10.93;5.28;;;8.10;99.90;;;;;;5119951;27;20202;-86
2022/10/09 04:46:24;;;;;;;7.13;5.00;;;8.10;99.90;;;;;;5109107;28;20188;-88
2022/10/09 04:48:53;;;;;;;10.10;5.53;;;8.00;99.90;;;;;;5114023;28;20202;-85
2022/10/09 04:51:23;;;;;;;6.72;5.00;;;8.00;99.90;;;;;;5107968;28;20197;-87
2022/10/09 04:53:50;;;;;;;6.15;4.90;;;8.00;99.90;;;;;;5117125;28;20220;-87
2022/10/09 04:56:24;;;;;;;7.47;4.50;;;7.90;99.90;;;;;;5114519;28;20196;-87
2022/10/09 04:59:05;;;;;;;9.80;4.63;;;7.90;99.90;;;;;;5110545;28;20203;-86
2022/10/09 05:02:22;;;;;;;9.57;4.82;;;7.90;99.90;;;;;;5106500;28;20701;-86
2022/10/09 05:04:56;;;;;;;9.07;4.53;;;8.00;99.90;;;;;;5117876;27;20302;-86
2022/10/09 05:07:29;;;;;;;6.72;4.38;;;8.00;99.90;;;;;;5114978;28;20257;-86
2022/10/09 05:10:06;;;;;;;8.27;4.47;;;8.00;99.90;;;;;;5112140;28;20298;-86
2022/10/09 05:12:41;;;;;;;6.30;4.20;;;8.00;99.90;;;;;;5111973;28;20299;-86
2022/10/09 05:15:18;;;;;;;8.63;4.50;;;8.00;99.90;;;;;;5112252;28;20198;-86
2022/10/09 05:18:10;;;;;;;6.97;4.40;;;8.00;99.90;;;;;;5108844;28;20196;-86
2022/10/09 05:20:54;;;;;;;5.60;4.00;;;8.10;99.90;;;;;;5111601;28;20208;-86
2022/10/09 05:23:35;;;;;;;7.57;4.53;;;8.10;99.90;;;;;;5114333;28;20198;-86
2022/10/09 05:26:07;;;;;;;8.50;4.47;;;8.00;99.90;;;;;;5111010;28;20635;-86
2022/10/09 05:28:35;;;;;;;8.02;4.65;;;8.10;99.90;;;;;;5114443;28;20192;-88
2022/10/09 05:31:03;;;;;;;5.75;4.55;;;8.00;99.90;;;;;;5115435;28;20654;-85
2022/10/09 05:33:41;;;;;;;6.65;4.30;;;8.00;99.90;;;;;;5116209;27;20191;-86
2022/10/09 05:36:09;;;;;;;5.82;4.10;;;8.00;99.90;;;;;;5112615;27;20191;-86
2022/10/09 05:38:47;;;;;;;8.93;4.50;;;8.10;99.90;;;;;;5103245;28;20236;-86
2022/10/09 05:41:25;;;;;;;6.20;4.22;;;8.20;99.90;;;;;;5115524;28;20211;-88
2022/10/09 05:43:53;;;;;;;6.88;4.15;;;8.20;99.90;;;;;;5108763;28;20200;-85
2022/10/09 05:46:35;;;;;;;5.03;3.92;;;8.20;99.90;;;;;;5108470;27;20635;-86
2022/10/09 05:49:05;;;;;;;5.85;3.97;;;8.20;99.90;;;;;;5107880;28;20196;-85
2022/10/09 05:51:42;;;;;;;8.13;4.18;;;8.20;99.90;;;;;;5113911;28;20668;-86
2022/10/09 05:54:12;;;;;;;6.93;4.25;;;8.20;99.90;;;;;;5111413;28;20539;-85
2022/10/09 05:56:41;;;;;;;7.70;4.47;;;8.20;99.90;;;;;;5110899;28;20193;-85
2022/10/09 05:59:10;;;;;;;6.38;3.70;;;8.20;99.90;;;;;;5109435;27;20762;-87
2022/10/09 06:05:05;;;;;;;8.25;4.25;;;8.20;99.90;;;;;;5107159;28;20222;-87
2022/10/09 06:07:42;;;;;;;8.93;4.20;;;8.20;99.90;;;;;;5109019;27;20191;-86
2022/10/09 06:10:40;;;;;;;7.35;4.57;;;8.20;99.90;;;;;;5116905;27;20223;-86
2022/10/09 06:13:28;;;;;;;6.82;4.30;;;8.30;99.90;;;;;;5110774;27;20192;-86
2022/10/09 06:15:59;;;;;;;6.70;4.35;;;8.40;99.90;;;;;;5114561;27;20283;-86
2022/10/09 06:18:53;;;;;;;6.63;4.63;;;8.40;99.90;;;;;;5109225;27;20184;-86
2022/10/09 06:21:35;;;;;;;9.05;4.50;;;8.50;99.90;;;;;;5114192;27;20220;-86
2022/10/09 06:24:20;;;;;;;7.28;4.20;;;8.50;99.90;;;;;;5112481;27;20202;-86
2022/10/09 06:26:53;;;;;;;5.78;4.40;;;8.60;99.90;;;;;;5114477;28;20647;-87
2022/10/09 06:29:23;;;;;;;8.43;4.30;;;8.60;99.90;;;;;;5114126;27;20195;-86
2022/10/09 06:31:59;;;;;;;8.57;4.07;;;8.60;99.90;;;;;;5119216;27;20548;-86
2022/10/09 06:34:35;;;;;;;9.48;4.75;;;8.70;99.90;;;;;;5118637;27;20646;-87
2022/10/09 06:37:28;;;;;;;7.75;4.55;;;8.70;99.90;;;;;;5104487;27;20646;-86
2022/10/09 06:40:12;;;;;;;8.50;4.25;;;8.80;99.90;;;;;;5115617;27;20554;-86
2022/10/09 06:42:41;;;;;;;6.78;4.30;;;9.00;99.90;;;;;;5109735;28;20277;-85
2022/10/09 06:45:17;;;;;;;8.07;4.32;;;9.00;99.90;;;;;;5104995;28;20284;-86
2022/10/09 06:48:16;;;;;;;12.65;5.10;;;9.00;99.90;;;;;;5107965;28;20288;-85
2022/10/09 06:54:30;;;;;;;7.93;4.05;;;9.20;99.90;;;;;;5116286;27;20179;-85
2022/10/09 06:57:24;;;;;;;8.60;4.18;;;9.30;99.90;;;;;;5121934;27;20282;-85
2022/10/09 07:00:11;;;;;;;9.60;3.90;;;9.30;99.90;;;;;;5115866;27;20227;-86
2022/10/09 07:02:41;;;;;;;6.53;4.30;;;9.40;99.90;;;;;;5113343;27;20191;-85
2022/10/09 07:05:17;;;;;;;8.90;4.93;;;9.50;99.80;;;;;;5100955;28;20223;-85
2022/10/09 07:07:59;;;;;;;10.20;4.45;;;9.80;99.30;;;;;;5106342;28;20192;-85
2022/10/09 07:11:10;;;;;;;6.35;4.53;;;10.00;98.50;;;;;;5112520;27;20283;-86
2022/10/09 07:13:49;;;;;;;7.00;4.40;;;10.10;98.10;;;;;;5113069;27;20219;-85
2022/10/09 07:16:25;;;;;;;7.82;4.18;;;10.00;97.80;;;;;;5101330;28;20196;-85
2022/10/09 07:18:53;;;;;;;7.88;4.97;;;10.10;98.30;;;;;;5109680;27;20222;-84
2022/10/09 07:21:35;;;;;;;7.28;3.85;;;10.00;98.30;;;;;;5116717;28;20228;-83
2022/10/09 07:24:34;;;;;;;7.60;4.57;;;10.20;98.60;;;;;;5118787;28;20226;-84
2022/10/09 07:27:17;;;;;;;10.93;4.40;;;10.30;98.10;;;;;;5103377;28;20662;-85
2022/10/09 07:29:54;;;;;;;7.03;4.32;;;10.30;98.30;;;;;;5111130;28;20191;-84
2022/10/09 07:33:10;;;;;;;7.82;4.30;;;10.40;98.00;;;;;;5115405;28;20202;-85
2022/10/09 07:35:37;;;;;;;7.03;3.97;;;10.60;97.50;;;;;;5112893;27;20234;-84
2022/10/09 07:38:52;;;;;;;8.07;4.05;;;10.80;97.40;;;;;;5119263;28;20264;-86
2022/10/09 07:41:21;;;;;;;6.72;4.30;;;10.90;96.50;;;;;;5118400;28;20239;-85
2022/10/09 07:50:48;;;;;;;7.60;4.35;;;11.30;96.00;;;;;;5117325;28;20195;-85
2022/10/09 07:56:42;;;;;;;8.10;4.75;;;11.30;96.00;;;;;;5112807;28;20259;-84
2022/10/09 08:02:31;;;;;;;7.28;4.20;;;11.60;95.40;;;;;;5141137;28;20221;-84
2022/10/09 08:12:08;;;;;;;5.93;4.25;;;12.10;95.50;;;;;;5142115;27;20262;-86
2022/10/09 08:17:57;;;;;;;7.20;3.95;;;12.50;94.30;;;;;;5126100;27;20300;-86
2022/10/09 08:20:55;;;;;;;9.25;4.28;;;12.70;94.00;;;;;;5122939;27;20195;-85
2022/10/09 08:23:29;;;;;;;7.25;4.50;;;12.70;94.20;;;;;;5136820;27;20200;-88
2022/10/09 08:26:46;;;;;;;8.30;4.13;;;12.80;94.00;;;;;;5134965;27;20506;-86
2022/10/09 08:29:30;;;;;;;7.72;4.25;;;12.80;94.00;;;;;;5125972;27;20195;-85
2022/10/09 08:32:34;;;;;;;9.30;4.35;;;12.90;93.20;;;;;;5122191;27;20192;-86
2022/10/09 08:35:11;;;;;;;5.82;4.40;;;13.00;93.80;;;;;;5131230;27;20196;-88
2022/10/09 08:37:38;;;;;;;6.65;4.60;;;13.30;93.10;;;;;;5131342;27;20191;-89
2022/10/09 08:40:07;;;;;;;9.32;4.45;;;13.30;92.70;;;;;;5129552;27;20199;-85
2022/10/09 08:42:39;;;;;;;10.13;4.93;;;13.20;93.00;;;;;;5123082;27;20224;-85
2022/10/09 08:45:13;;;;;;;9.18;5.20;;;13.40;92.50;;;;;;5130724;27;20535;-85
2022/10/09 08:47:45;;;;;;;6.65;5.13;;;13.40;92.20;;;;;;5126732;27;20628;-86
2022/10/09 08:50:22;;;;;;;8.68;5.93;;;13.50;92.00;;;;;;5121092;27;20200;-85
2022/10/09 08:52:58;;;;;;;7.63;5.47;;;13.60;91.40;;;;;;5126453;27;20194;-85
2022/10/09 08:55:41;;;;;;;8.23;5.40;;;13.60;91.10;;;;;;5132460;27;20187;-85
2022/10/09 08:58:15;;;;;;;8.68;6.38;;;13.70;91.20;;;;;;5126410;27;20191;-88
2022/10/09 09:00:51;;;;;;;8.95;6.00;;;13.60;91.10;;;;;;5125692;27;20277;-86
2022/10/09 09:06:47;;;;;;;9.20;5.90;;;13.70;91.20;;;;;;5199622;22;20228;-84
2022/10/09 09:09:25;;;;;;;10.88;8.35;;;13.80;91.20;;;;;;5131008;27;20279;-86
2022/10/09 09:11:57;;;;;;;9.52;5.95;;;14.00;91.20;;;;;;5129918;27;20614;-85
2022/10/09 09:14:48;;;;;;;9.80;5.95;;;14.00;90.70;;;;;;5138605;27;20205;-84
2022/10/09 09:17:58;;;;;;;9.20;6.28;;;14.20;90.40;;;;;;5130179;27;20199;-85
2022/10/09 09:20:39;;;;;;;9.23;6.35;;;14.40;89.90;;;;;;5135122;27;20192;-86
2022/10/09 09:23:15;;;;;;;6.70;5.82;;;14.60;88.60;;;;;;5124625;27;20569;-85
2022/10/09 09:25:47;;;;;;;9.15;6.03;;;14.70;87.70;;;;;;5131516;27;20217;-85
2022/10/09 09:28:58;;;;;;;8.25;5.72;;;14.60;88.80;;;;;;5132818;27;20669;-85
2022/10/09 09:31:54;;;;;;;7.70;5.30;;;14.90;84.70;;;;;;5130539;27;20289;-84
2022/10/09 09:34:37;;;;;;;9.15;6.00;;;15.10;83.30;;;;;;5134741;27;20187;-84
2022/10/09 09:50:41;;;;;;;5.80;4.85;;;14.90;81.80;;;;;;5124170;27;20193;-84
2022/10/09 09:53:27;;;;;;;5.95;4.97;;;15.00;81.60;;;;;;5124806;27;20237;-84
2022/10/09 09:55:55;;;;;;;6.88;4.88;;;14.90;80.70;;;;;;5131774;27;20274;-86
2022/10/09 09:58:47;;;;;;;6.22;5.15;;;15.00;82.30;;;;;;5124391;27;20187;-85
2022/10/09 10:01:23;;;;;;;5.25;4.50;;;15.10;81.40;;;;;;5123452;27;20258;-87
2022/10/09 10:03:52;;;;;;;8.85;5.13;;;15.20;79.60;;;;;;5125431;27;20209;-88
2022/10/09 10:06:28;;;;;;;5.90;4.82;;;15.20;78.20;;;;;;5125091;27;20229;-85
2022/10/09 10:09:13;;;;;;;7.43;5.60;;;15.30;79.80;;;;;;5106115;28;20198;-84
2022/10/09 10:11:45;;;;;;;6.28;4.30;;;15.30;79.70;;;;;;5112431;27;20210;-88
2022/10/09 10:14:15;;;;;;;5.80;4.18;;;15.40;77.60;;;;;;5106457;27;20224;-84
2022/10/09 10:16:43;;;;;;;8.98;7.10;;;15.30;77.50;;;;;;5118707;27;20553;-84
2022/10/09 10:19:21;;;;;;;5.85;4.40;;;15.40;79.60;;;;;;5104071;27;20193;-84
2022/10/09 10:21:56;;;;;;;7.60;4.28;;;15.60;77.70;;;;;;5112344;27;20693;-83
2022/10/09 10:24:27;;;;;;;6.32;4.60;;;15.60;77.70;;;;;;5114044;27;20769;-84
2022/10/09 10:26:58;;;;;;;6.13;4.07;;;15.60;77.70;;;;;;5113961;27;20210;-83
2022/10/09 10:29:38;;;;;;;8.90;4.35;;;15.70;77.80;;;;;;5110643;27;20211;-83
2022/10/09 10:32:35;;;;;;;5.18;4.00;;;15.90;76.50;;;;;;5115462;27;20203;-84
2022/10/09 10:35:20;;;;;;;6.63;4.25;;;15.70;77.20;;;;;;5111500;28;20644;-83
2022/10/09 10:37:53;;;;;;;7.50;3.72;;;15.70;76.70;;;;;;5112915;28;20643;-84
2022/10/09 10:40:49;;;;;;;5.10;4.28;;;15.90;76.00;;;;;;5114887;27;20188;-83
2022/10/09 10:43:30;;;;;;;5.30;3.60;;;15.90;73.10;;;;;;5125940;27;20546;-83
2022/10/09 10:56:10;;;;;;;4.85;3.65;;;15.80;73.90;;;;;;5100292;28;20634;-83
2022/10/09 10:58:47;;;;;;;8.48;3.50;;;15.70;74.10;;;;;;5116345;28;20196;-83
2022/10/09 11:11:36;;;;;;;6.15;3.25;;;15.40;77.60;;;;;;5105174;28;20213;-82
2022/10/09 11:14:17;;;;;;;4.57;3.53;;;15.50;77.70;;;;;;5105144;28;21424;-84
2022/10/09 11:17:25;;;;;;;5.30;3.35;;;15.50;77.70;;;;;;5109156;27;20192;-85
2022/10/09 11:20:25;;;;;;;6.90;3.75;;;15.60;77.00;;;;;;5104586;27;20200;-83
2022/10/09 11:26:43;;;;;;;5.53;4.05;;;15.80;72.70;;;;;;5114045;28;20210;-83
2022/10/09 11:29:16;;;;;;;4.35;3.30;;;15.60;74.60;;;;;;5114853;27;20198;-84
2022/10/09 11:35:42;;;;;;;4.90;3.47;;;15.40;77.00;;;;;;5114787;28;20710;-84
2022/10/09 11:41:50;;;;;;;4.43;3.40;;;15.40;77.60;;;;;;5117349;27;20171;-84
2022/10/09 11:48:08;;;;;;;6.10;3.75;;;15.60;76.70;;;;;;5115126;28;20261;-86
2022/10/09 12:01:24;;;;;;;4.80;3.50;;;15.70;72.00;;;;;;5115103;28;20217;-84
2022/10/09 12:07:33;;;;;;;4.82;3.30;;;15.60;72.40;;;;;;5094123;28;20202;-82
2022/10/09 12:24:55;;;;;;;10.93;4.82;;;15.40;77.50;;;;;;5093873;28;20181;-84
2022/10/09 12:27:26;;;;;;;4.75;3.35;;;15.70;77.70;;;;;;5108977;28;20206;-85
2022/10/09 12:30:34;;;;;;;6.30;3.90;;;15.80;75.40;;;;;;5101283;28;20204;-86
2022/10/09 12:33:23;;;;;;;6.65;3.58;;;15.80;76.00;;;;;;5108778;28;20626;-86
2022/10/09 12:36:28;;;;;;;7.38;3.03;;;15.70;74.90;;;;;;5104094;28;20199;-86
2022/10/09 12:39:32;;;;;;;4.50;3.20;;;15.60;77.70;;;;;;5101455;28;20196;-85
2022/10/09 12:42:05;;;;;;;4.35;2.90;;;15.70;77.80;;;;;;5106220;28;20208;-86
2022/10/09 12:44:55;;;;;;;4.93;3.42;;;15.90;74.70;;;;;;5120703;28;20200;-86
2022/10/09 12:47:25;;;;;;;5.68;3.65;;;15.80;74.10;;;;;;5101989;28;20203;-85
2022/10/09 12:50:21;;;;;;;5.15;3.30;;;15.90;75.90;;;;;;5104211;28;20587;-86
2022/10/09 12:52:49;;;;;;;4.68;3.40;;;16.00;74.90;;;;;;5106726;28;20192;-89
2022/10/09 12:55:24;;;;;;;5.65;3.13;;;15.90;76.20;;;;;;5109135;28;20197;-87
2022/10/09 12:57:55;;;;;;;4.30;3.05;;;15.90;74.60;;;;;;5115539;28;20203;-86
2022/10/09 13:10:05;;;;;;;4.78;3.10;;;15.80;71.80;;;;;;5068853;28;20197;-85
2022/10/09 13:12:33;;;;;;;5.53;3.10;;;15.80;72.70;;;;;;5076646;28;20229;-85
2022/10/09 13:15:28;;;;;;;5.78;3.30;;;15.80;72.00;;;;;;5076450;28;20203;-85
2022/10/09 13:17:55;;;;;;;5.20;3.10;;;15.60;73.70;;;;;;5076512;28;20193;-84
2022/10/09 13:20:35;;;;;;;5.25;3.85;;;15.60;73.90;;;;;;5071611;28;20207;-85
2022/10/09 13:26:27;;;;;;;4.93;3.08;;;15.50;75.80;;;;;;5076131;28;20181;-84
2022/10/09 13:32:28;;;;;;;4.90;2.97;;;15.30;75.50;;;;;;5076515;28;20186;-84
2022/10/09 13:35:23;;;;;;;3.97;2.88;;;15.20;75.00;;;;;;5076237;28;20191;-84
2022/10/09 13:41:14;;;;;;;8.15;3.63;;;15.10;77.40;;;;;;5062103;28;20223;-85
2022/10/09 13:43:50;;;;;;;6.20;3.33;;;15.00;77.30;;;;;;5061566;28;20240;-84
2022/10/09 13:46:29;;;;;;;4.90;3.15;;;15.00;77.30;;;;;;5068660;28;20197;-85
2022/10/09 13:52:35;;;;;;;4.45;3.00;;;14.90;79.90;;;;;;5067656;28;20292;-85
2022/10/09 13:55:17;;;;;;;5.82;3.40;;;14.90;79.80;;;;;;5074217;28;20712;-85
2022/10/09 13:57:47;;;;;;;7.05;3.22;;;14.90;78.50;;;;;;5076444;28;20276;-85
2022/10/09 14:00:15;;;;;;;5.13;3.05;;;14.90;78.20;;;;;;5068232;28;20285;-85
2022/10/09 14:06:04;;;;;;;4.90;2.97;;;14.80;80.00;;;;;;5053615;28;20221;-85
2022/10/09 14:08:41;;;;;;;5.07;3.10;;;14.80;79.20;;;;;;5048770;28;20289;-88
2022/10/09 14:11:40;;;;;;;4.50;2.53;;;14.80;80.10;;;;;;5050502;28;20301;-86
2022/10/09 14:17:30;;;;;;;6.82;3.40;;;14.70;80.60;;;;;;5041495;28;20545;-85
2022/10/09 14:23:23;;;;;;;4.72;3.40;;;14.80;81.70;;;;;;5044361;28;20213;-85
2022/10/09 14:25:50;;;;;;;5.22;2.97;;;14.80;80.40;;;;;;5049630;28;20197;-85
2022/10/09 14:28:53;;;;;;;5.75;2.83;;;14.80;81.20;;;;;;5046940;28;20280;-85
2022/10/09 14:31:20;;;;;;;5.88;3.13;;;14.70;82.20;;;;;;5054793;28;20194;-85
2022/10/09 14:34:00;;;;;;;8.02;3.42;;;14.60;83.50;;;;;;5043068;28;20205;-85
2022/10/09 14:37:23;;;;;;;4.28;3.30;;;14.60;83.20;;;;;;5052445;28;20255;-85
2022/10/09 14:40:36;;;;;;;5.30;3.10;;;14.50;83.60;;;;;;5050879;28;20274;-85
2022/10/09 14:57:00;;;;;;;6.55;3.63;;;14.30;89.00;;;;;;5055075;28;20193;-85
2022/10/09 14:59:35;;;;;;;3.83;3.10;;;14.20;89.90;;;;;;5046050;28;20228;-85
2022/10/09 15:05:47;;;;;;;6.20;3.75;;;14.10;90.20;;;;;;5045290;28;20313;-85
2022/10/09 15:14:58;;;;;;;5.53;3.60;;;14.10;90.70;;;;;;5044832;28;20192;-85
2022/10/09 15:20:47;;;;;;;6.72;4.43;;;13.90;91.20;;;;;;5054919;28;20174;-85
2022/10/09 15:26:47;;;;;;;6.07;3.85;;;13.80;91.20;;;;;;5048556;28;20178;-85
2022/10/09 15:29:47;;;;;;;6.40;3.53;;;13.70;91.20;;;;;;5046046;28;20201;-85
2022/10/09 15:36:23;;;;;;;13.77;9.90;;;13.80;91.10;;;;;;5045796;28;20652;-85
2022/10/09 15:42:13;;;;;;;8.82;4.15;;;13.70;91.20;;;;;;5035280;28;20238;-84
2022/10/09 15:48:31;;;;;;;6.20;3.92;;;13.50;91.10;;;;;;5053050;28;20731;-84
2022/10/09 15:57:46;;;;;;;6.43;3.70;;;13.50;91.10;;;;;;5060040;28;20212;-84
2022/10/09 16:00:34;;;;;;;5.00;4.10;;;13.30;91.70;;;;;;5056314;28;20189;-84
2022/10/09 16:03:11;;;;;;;6.22;4.20;;;13.30;92.10;;;;;;5039106;28;20237;-84
2022/10/09 16:16:04;;;;;;;7.70;3.67;;;13.20;92.00;;;;;;5270194;22;20239;-84
2022/10/09 16:22:45;;;;;;;8.35;3.90;;;13.10;91.70;;;;;;4999261;28;20180;-84
2022/10/09 16:29:25;;;;;;;5.63;3.30;;;12.90;92.20;;;;;;4999917;28;20168;-84
2022/10/09 16:39:40;;;;;;;8.38;3.38;;;12.80;92.50;;;;;;5025196;28;20179;-84
2022/10/09 18:59:58;;;;;;;7.32;5.00;;;10.60;98.50;;;;;;5079831;28;20236;-87
2022/10/09 19:02:25;;;;;;;8.77;5.30;;;10.60;98.80;;;;;;5082358;28;20652;-86
2022/10/09 19:04:52;;;;;;;7.97;4.93;;;10.70;98.40;;;;;;5078282;28;20244;-83
2022/10/09 19:07:19;;;;;;;8.48;4.88;;;10.70;98.10;;;;;;5073880;28;20283;-89
2022/10/09 19:09:59;;;;;;;8.82;5.22;;;10.70;98.00;;;;;;5075243;28;20231;-85
2022/10/09 19:12:26;;;;;;;9.65;5.32;;;10.70;97.90;;;;;;5072559;28;20189;-84
2022/10/09 19:14:53;;;;;;;8.52;5.20;;;10.70;98.00;;;;;;5066434;28;20200;-85
2022/10/09 19:17:48;;;;;;;7.85;4.93;;;10.60;97.90;;;;;;5077125;28;20611;-84
2022/10/09 19:20:23;;;;;;;8.50;4.70;;;10.60;97.90;;;;;;5063192;28;20195;-86
2022/10/09 19:22:53;;;;;;;7.20;4.75;;;10.60;97.80;;;;;;5073391;28;20295;-85
2022/10/09 19:25:29;;;;;;;6.05;4.22;;;10.50;98.10;;;;;;5066520;28;20280;-85
2022/10/09 19:28:11;;;;;;;7.78;4.05;;;10.40;98.30;;;;;;5064347;28;20206;-84
2022/10/09 19:34:08;;;;;;;8.25;4.78;;;10.40;98.70;;;;;;5068095;28;20729;-84
2022/10/09 19:37:05;;;;;;;7.40;4.60;;;10.40;98.40;;;;;;5060763;28;20220;-85
2022/10/09 19:40:17;;;;;;;8.15;4.95;;;10.30;98.30;;;;;;5065820;28;20198;-84
2022/10/09 19:49:31;;;;;;;10.73;5.07;;;10.30;98.40;;;;;;5065786;28;20236;-84
2022/10/09 19:55:20;;;;;;;7.40;4.57;;;10.40;98.10;;;;;;5072756;28;20189;-85
2022/10/09 19:58:35;;;;;;;5.55;4.20;;;10.40;98.20;;;;;;5076001;28;20189;-85
2022/10/09 20:11:13;;;;;;;10.68;5.93;;;10.20;98.40;;;;;;5062337;28;20185;-86